Latest  Newer  Older  Last 2 hours slideshow  Last 24 hours slideshow  Refresh every 5 minutes 
Current image  Latest image  Rain/snow radar  Cloud coverage sat images 

All time is UTC (add 2 hours to UTC in wintertime, 3 hours to UTC in DST for Latvia local time)

2020/02/21 22:20 EVRA 212220Z 18009KT 9999 FEW015 00/00 Q1013 R18/310195 NOSIG
2020/02/21 22:20 EVLA 212220Z AUTO 22017KT 9999 BKN012/// 05/04 Q1013
2020/02/21 22:20 EVVA 212220Z AUTO 21015KT 9999 FEW014 05/05 Q1010
2020/02/21 22:20 EYKA 212220Z 22006KT 9999 -RA OVC013 03/01 Q1018 R08/190095
2020/02/21 22:20 EYPA 212220Z 23009KT 200V290 9999 BKN013 05/04 Q1015 R19/1///95
2020/02/21 22:20 EYSA 212220Z 22010KT 9999 SCT012 BKN034 03/02 Q1015 R14L/09//95 R14R/09//95 GRN TEMPO FEW010 BKN026 BLU
2020/02/21 22:20 EYVI 212220Z 22006KT 7000 SCT005 BKN029 01/00 Q1019 R19/2///95 NOSIG

2020/02/21 21:50 EEKE 212150Z AUTO 22012KT 200V260 9999NDV NSC 05/02 Q1008

2020/02/21 22:20 EETN 212220Z 20013KT CAVOK 03/01 Q1005 R08/290195
2020/02/21 21:50 EETU 212150Z 22012KT 9999 BKN017 OVC022 03/00 Q1010
   RIGA AIRPORT     EVRA               56 55N  023 58E   10   X     T          6 LV
   LIEPAJA INTL     EVLA        26406  56 31N  021 06E    4   X                8 LV
   VENTPILS         EVVA               57 21N  021 33E    6   X                8 LV
   KAUNAS           EYKA               54 54N  023 55E   77   X     T          6 LT
   PALANGA INTL     EYPA               55 55N  021 03E   10   X                6 LT
   SIAULIAI INTL    EYSA               55 54N  023 24E  135   X     T          6 LT
   VILNIUS INTL     EYVI        26730  54 38N  025 17E  197   X     T          6 LT
   KARDLA           EEKA        26116  58 59N  022 50E    4   X                8 EE
   KURESSAARE       EEKE               58 14N  022 31E    4   X                8 EE
   PARNU            EEPU               58 25N  024 28E   14   X                8 EE
   TALLINN          EETN        26038  59 24N  024 49E   40   X     T          8 EE
   TARTU            EETU               58 19N  026 41E   67   X                8 EE